Time;durP1;ratioP1;P1;durP2;ratioP2;P2;SDS_P1;SDS_P2;PMS_P1;PMS_P2;Temp;Humidity;BMP_temperature;BMP_pressure;BME280_temperature;BME280_humidity;BME280_pressure;Samples;Min_cycle;Max_cycle;Signal;HPM_P1;HPM_P2
2021/03/26 00:02:41;;;;;;;56.80;34.15;;;7.60;99.90;;;;;;12352510;28;20050;-42
2021/03/26 00:08:43;;;;;;;53.85;32.63;;;7.60;99.90;;;;;;12356986;28;20050;-41
2021/03/26 00:14:44;;;;;;;56.85;34.05;;;7.60;99.90;;;;;;12360657;28;20537;-41
2021/03/26 00:20:46;;;;;;;53.83;35.20;;;7.60;99.90;;;;;;12355737;28;20138;-41
2021/03/26 00:26:47;;;;;;;57.78;33.45;;;7.70;99.90;;;;;;12365819;28;20050;-44
2021/03/26 00:32:52;;;;;;;55.72;34.03;;;7.70;99.90;;;;;;12355777;28;20077;-41
2021/03/26 00:38:54;;;;;;;57.03;34.20;;;7.70;99.90;;;;;;12369692;28;20077;-41
2021/03/26 00:44:55;;;;;;;51.97;34.25;;;7.70;99.90;;;;;;12367825;28;20052;-42
2021/03/26 00:51:00;;;;;;;54.63;34.40;;;7.70;99.90;;;;;;12348776;28;22038;-41
2021/03/26 00:57:02;;;;;;;60.63;34.95;;;7.70;99.90;;;;;;12356938;28;20103;-43
2021/03/26 01:03:21;;;;;;;57.53;35.13;;;7.60;99.90;;;;;;12358401;28;20414;-41
2021/03/26 01:09:22;;;;;;;60.25;36.10;;;7.50;99.90;;;;;;12358925;28;20096;-41
2021/03/26 01:15:26;;;;;;;61.20;36.33;;;7.50;99.90;;;;;;12369327;28;20137;-43
2021/03/26 01:21:30;;;;;;;60.72;35.17;;;7.50;99.90;;;;;;12364106;28;20082;-42
2021/03/26 01:27:34;;;;;;;;;;;7.50;99.90;;;;;;12373024;28;20141;-43
2021/03/26 01:33:37;;;;;;;61.05;36.00;;;7.50;99.90;;;;;;12362289;28;19933;-42
2021/03/26 01:39:38;;;;;;;58.17;36.13;;;7.50;99.90;;;;;;12361353;28;20093;-41
2021/03/26 01:45:41;;;;;;;61.50;36.17;;;7.60;99.90;;;;;;12374947;28;20522;-41
2021/03/26 01:51:46;;;;;;;56.95;35.20;;;7.50;99.90;;;;;;12368456;28;20714;-42
2021/03/26 01:57:48;;;;;;;55.40;34.83;;;7.50;99.90;;;;;;12370982;28;20121;-41
2021/03/26 02:04:04;;;;;;;58.75;34.70;;;7.40;99.90;;;;;;12374599;28;20612;-41
2021/03/26 02:10:06;;;;;;;58.30;35.10;;;7.40;99.90;;;;;;12361873;28;20465;-42
2021/03/26 02:16:10;;;;;;;58.60;34.20;;;7.40;99.90;;;;;;12364990;28;20154;-42
2021/03/26 02:22:13;;;;;;;59.55;35.03;;;7.20;99.90;;;;;;12369664;28;20157;-41
2021/03/26 02:28:16;;;;;;;59.38;34.42;;;7.20;99.90;;;;;;12374918;28;20144;-41
2021/03/26 02:34:25;;;;;;;55.88;33.42;;;7.20;99.90;;;;;;12363148;28;20737;-41
2021/03/26 02:40:30;;;;;;;58.20;33.63;;;7.10;99.90;;;;;;12372599;28;20145;-41
2021/03/26 02:46:55;;;;;;;54.63;32.72;;;7.10;99.90;;;;;;12378977;28;20053;-42
2021/03/26 02:52:59;;;;;;;;;;;7.10;99.90;;;;;;12374219;28;20137;-41
2021/03/26 02:59:07;;;;;;;56.67;32.30;;;7.00;99.90;;;;;;12375405;28;20024;-41
2021/03/26 03:05:17;;;;;;;53.03;32.25;;;7.00;99.90;;;;;;12371119;28;20069;-41
2021/03/26 03:12:07;;;;;;;50.85;30.20;;;7.10;99.90;;;;;;12363253;28;20054;-42
2021/03/26 03:18:25;;;;;;;50.70;29.77;;;7.20;99.90;;;;;;12376175;28;20049;-42
2021/03/26 03:24:36;;;;;;;52.85;30.15;;;7.20;99.90;;;;;;12376776;28;20399;-41
2021/03/26 03:31:12;;;;;;;46.85;29.58;;;7.40;99.90;;;;;;12373759;28;20042;-42
2021/03/26 03:37:34;;;;;;;49.17;30.25;;;7.30;99.90;;;;;;12374104;28;20137;-42
2021/03/26 03:43:44;;;;;;;52.63;29.70;;;7.30;99.90;;;;;;12372644;28;20082;-41
2021/03/26 03:49:56;;;;;;;54.28;30.73;;;7.20;99.90;;;;;;12370285;28;20057;-41
2021/03/26 03:56:04;;;;;;;57.03;31.33;;;7.00;99.90;;;;;;12369069;28;20081;-41
2021/03/26 04:02:22;;;;;;;54.22;31.77;;;6.90;99.90;;;;;;12367050;28;20046;-43
2021/03/26 04:08:33;;;;;;;57.20;32.50;;;6.80;99.90;;;;;;12378742;28;20053;-40
2021/03/26 04:14:53;;;;;;;54.08;32.85;;;6.80;99.90;;;;;;12359677;28;20085;-41
2021/03/26 04:21:12;;;;;;;53.50;33.08;;;6.70;99.90;;;;;;12363638;28;20145;-42
2021/03/26 04:27:32;;;;;;;60.58;33.40;;;6.70;99.90;;;;;;12374204;28;20058;-41
2021/03/26 04:33:34;;;;;;;56.97;32.92;;;6.70;99.90;;;;;;12371220;28;20042;-42
2021/03/26 04:39:59;;;;;;;59.78;33.65;;;6.60;99.90;;;;;;12353570;28;20076;-41
2021/03/26 04:46:26;;;;;;;64.32;34.72;;;6.40;99.90;;;;;;12354775;28;20058;-41
2021/03/26 04:52:39;;;;;;;64.18;33.22;;;6.40;99.90;;;;;;12357812;28;20050;-41
2021/03/26 04:58:46;;;;;;;68.18;35.97;;;6.30;99.90;;;;;;12369506;28;20060;-41
2021/03/26 05:04:51;;;;;;;62.83;35.33;;;6.50;99.90;;;;;;12363760;28;20058;-41
2021/03/26 05:10:54;;;;;;;;;;;6.40;99.90;;;;;;12369853;28;20050;-42
2021/03/26 05:16:59;;;;;;;63.90;34.60;;;6.30;99.90;;;;;;12364803;28;19925;-41
2021/03/26 05:23:09;;;;;;;72.07;35.55;;;6.20;99.90;;;;;;12380622;28;20074;-41
2021/03/26 05:29:11;;;;;;;65.72;34.95;;;6.20;99.90;;;;;;12382776;28;20043;-42
2021/03/26 05:35:26;;;;;;;70.90;36.70;;;6.10;99.90;;;;;;12365063;28;20553;-41
2021/03/26 05:41:55;;;;;;;72.80;37.88;;;6.30;99.90;;;;;;12372379;28;20050;-41
2021/03/26 05:48:23;;;;;;;68.03;35.65;;;6.40;99.90;;;;;;12371934;28;20541;-41
2021/03/26 05:54:48;;;;;;;67.93;35.22;;;6.50;99.90;;;;;;12369724;28;20584;-42
2021/03/26 06:01:10;;;;;;;;;;;6.50;99.90;;;;;;12370551;28;20054;-42
2021/03/26 06:07:11;;;;;;;61.70;35.15;;;6.50;99.90;;;;;;12372943;28;20431;-41
2021/03/26 06:13:15;;;;;;;61.28;35.42;;;6.50;99.90;;;;;;12368867;28;20066;-42
2021/03/26 06:19:35;;;;;;;68.95;35.78;;;6.70;99.90;;;;;;12378563;28;20537;-42
2021/03/26 06:25:52;;;;;;;61.85;33.97;;;6.80;99.90;;;;;;12379453;28;20045;-42
2021/03/26 06:32:29;;;;;;;59.10;33.55;;;7.00;99.90;;;;;;12370819;28;20057;-41
2021/03/26 06:39:03;;;;;;;59.83;33.40;;;7.00;99.90;;;;;;12368067;28;20090;-42
2021/03/26 06:45:23;;;;;;;58.40;33.45;;;7.10;99.90;;;;;;12370828;28;20058;-43
2021/03/26 06:51:46;;;;;;;60.92;33.30;;;7.30;99.90;;;;;;12355669;28;20050;-41
2021/03/26 06:58:26;;;;;;;57.60;32.33;;;7.70;99.90;;;;;;12370902;28;20725;-42
2021/03/26 07:04:38;;;;;;;55.03;31.70;;;8.00;99.90;;;;;;12373315;28;20039;-42
2021/03/26 07:10:59;;;;;;;51.65;31.20;;;8.30;99.90;;;;;;12371445;28;20121;-42
2021/03/26 07:17:07;;;;;;;;;;;8.50;99.90;;;;;;12364798;28;20145;-42
2021/03/26 07:23:29;;;;;;;45.07;28.77;;;8.60;99.90;;;;;;12378393;28;19936;-44
2021/03/26 07:29:45;;;;;;;44.60;28.92;;;8.80;99.90;;;;;;12372037;28;20051;-41
2021/03/26 07:36:07;;;;;;;45.55;28.33;;;9.00;99.90;;;;;;12364662;28;20058;-42
2021/03/26 07:42:20;;;;;;;41.63;26.63;;;9.30;99.90;;;;;;12366659;28;20092;-42
2021/03/26 07:48:44;;;;;;;42.13;27.75;;;9.40;99.90;;;;;;12366841;28;20057;-42
2021/03/26 07:55:08;;;;;;;42.88;27.45;;;9.60;99.90;;;;;;12368617;28;20049;-42
2021/03/26 08:01:31;;;;;;;40.65;26.75;;;9.80;99.90;;;;;;12376438;28;20050;-42
2021/03/26 08:08:03;;;;;;;40.67;26.75;;;10.00;99.90;;;;;;12372672;28;20145;-43
2021/03/26 08:14:19;;;;;;;40.90;27.30;;;10.20;99.90;;;;;;12371170;28;20152;-42
2021/03/26 08:20:40;;;;;;;38.63;25.90;;;10.40;99.90;;;;;;12368408;28;20458;-42
2021/03/26 08:27:08;;;;;;;40.10;26.88;;;10.70;99.90;;;;;;12366099;28;20473;-42
2021/03/26 08:33:44;;;;;;;37.28;24.73;;;10.80;99.90;;;;;;12363899;28;20054;-44
2021/03/26 08:39:49;;;;;;;35.63;23.85;;;11.10;99.90;;;;;;12351054;28;20046;-42
2021/03/26 08:46:07;;;;;;;36.03;24.27;;;11.10;99.90;;;;;;12368394;28;20054;-42
2021/03/26 08:52:17;;;;;;;33.65;23.35;;;11.30;99.90;;;;;;12367166;28;20066;-42
2021/03/26 08:58:39;;;;;;;34.55;24.27;;;11.20;99.90;;;;;;12363002;28;20472;-43
2021/03/26 09:05:08;;;;;;;34.20;22.42;;;11.30;99.90;;;;;;12369925;28;20038;-42
2021/03/26 09:11:37;;;;;;;30.45;21.30;;;11.90;99.90;;;;;;12362892;28;20064;-42
2021/03/26 09:18:05;;;;;;;29.65;19.67;;;12.10;99.90;;;;;;12359495;28;20141;-42
2021/03/26 09:24:17;;;;;;;28.55;17.80;;;12.20;99.90;;;;;;12353510;28;20046;-42
2021/03/26 09:30:25;;;;;;;23.10;16.48;;;12.30;99.90;;;;;;12356824;28;20111;-42
2021/03/26 09:36:34;;;;;;;25.50;17.05;;;11.70;99.90;;;;;;12355239;28;20145;-45
2021/03/26 09:42:49;;;;;;;28.10;16.73;;;11.80;99.90;;;;;;12366957;28;20049;-43
2021/03/26 09:49:24;;;;;;;26.13;17.70;;;12.30;99.90;;;;;;12362596;28;20131;-41
2021/03/26 09:55:32;;;;;;;26.27;17.88;;;12.20;99.90;;;;;;12366166;28;20141;-42
2021/03/26 10:01:44;;;;;;;25.70;16.30;;;11.70;99.90;;;;;;12363707;28;20146;-42
2021/03/26 10:08:05;;;;;;;26.00;15.43;;;11.50;99.90;;;;;;12373973;28;20050;-42
2021/03/26 10:14:17;;;;;;;23.45;15.32;;;12.00;99.90;;;;;;12364338;28;20046;-43
2021/03/26 10:20:27;;;;;;;20.50;13.43;;;12.90;99.90;;;;;;12361741;28;20088;-42
2021/03/26 10:27:08;;;;;;;20.85;13.20;;;13.20;99.90;;;;;;12381020;28;20220;-42
2021/03/26 10:33:13;;;;;;;20.40;13.70;;;13.70;99.90;;;;;;12377218;28;20336;-42
2021/03/26 10:39:25;;;;;;;17.52;12.60;;;14.00;99.90;;;;;;12360129;28;20054;-43
2021/03/26 10:45:39;;;;;;;18.30;12.52;;;14.20;99.90;;;;;;12376723;28;20097;-43
2021/03/26 10:52:02;;;;;;;20.52;13.35;;;14.10;99.90;;;;;;12370932;28;20145;-43
2021/03/26 10:58:13;;;;;;;17.42;12.85;;;14.50;99.90;;;;;;12375313;28;20152;-42
2021/03/26 11:04:25;;;;;;;18.98;12.80;;;14.80;99.90;;;;;;12361509;28;20050;-43
2021/03/26 11:10:31;;;;;;;15.13;10.88;;;14.70;99.90;;;;;;12370135;28;20057;-43
2021/03/26 11:16:38;;;;;;;17.83;10.32;;;14.50;99.90;;;;;;12358426;28;20085;-42
2021/03/26 11:22:53;;;;;;;16.98;10.10;;;14.70;99.90;;;;;;12364391;28;20077;-43
2021/03/26 11:28:55;;;;;;;15.95;10.98;;;15.10;99.90;;;;;;12369021;28;20046;-44
2021/03/26 11:35:13;;;;;;;15.45;10.88;;;14.90;99.90;;;;;;12372460;28;20568;-42
2021/03/26 11:41:24;;;;;;;15.57;10.77;;;15.40;99.90;;;;;;12359476;28;20042;-42
2021/03/26 11:47:25;;;;;;;15.48;9.27;;;15.80;99.90;;;;;;12371086;28;20445;-42
2021/03/26 11:53:58;;;;;;;11.35;7.90;;;15.50;99.90;;;;;;12356897;28;20120;-42
2021/03/26 12:00:31;;;;;;;9.98;7.55;;;15.40;99.90;;;;;;12368320;28;20137;-44
2021/03/26 12:06:42;;;;;;;12.10;8.18;;;15.00;99.90;;;;;;12373593;28;20041;-43
2021/03/26 12:12:50;;;;;;;13.68;8.02;;;14.80;99.90;;;;;;12361167;28;20380;-44
2021/03/26 12:19:26;;;;;;;11.40;7.72;;;14.80;99.90;;;;;;12360768;28;20046;-42
2021/03/26 12:25:52;;;;;;;11.75;7.40;;;14.80;99.90;;;;;;12371510;28;20097;-42
2021/03/26 12:32:18;;;;;;;12.00;7.68;;;15.10;99.90;;;;;;12360764;28;20100;-43
2021/03/26 12:38:30;;;;;;;15.07;8.68;;;15.70;99.90;;;;;;12376811;28;20145;-43
2021/03/26 12:44:39;;;;;;;15.07;8.45;;;16.00;99.90;;;;;;12358011;28;20118;-42
2021/03/26 12:50:55;;;;;;;12.70;8.10;;;15.40;99.90;;;;;;12367164;28;20196;-42
2021/03/26 12:57:08;;;;;;;16.08;10.55;;;16.00;99.90;;;;;;12370764;28;20140;-43
2021/03/26 13:03:32;;;;;;;13.63;9.30;;;15.70;99.90;;;;;;12366134;28;20107;-43
2021/03/26 13:09:35;;;;;;;13.75;9.05;;;15.80;99.90;;;;;;12367474;28;20046;-42
2021/03/26 13:15:37;;;;;;;13.38;8.65;;;16.50;99.90;;;;;;12356528;28;20548;-42
2021/03/26 13:22:01;;;;;;;14.07;8.68;;;15.90;99.90;;;;;;12367275;28;20050;-44
2021/03/26 13:28:05;;;;;;;;;;;15.30;99.90;;;;;;12371147;28;20057;-42
2021/03/26 13:34:17;;;;;;;13.90;8.70;;;15.00;99.90;;;;;;12365325;28;20298;-44
2021/03/26 13:40:21;;;;;;;12.93;8.50;;;15.10;99.90;;;;;;12373327;28;20050;-42
2021/03/26 13:46:29;;;;;;;11.75;8.20;;;15.30;99.90;;;;;;12365031;28;20087;-43
2021/03/26 13:52:39;;;;;;;10.88;6.68;;;15.60;99.90;;;;;;12368012;28;20110;-43
2021/03/26 13:59:30;;;;;;;10.43;6.70;;;15.20;99.90;;;;;;12372562;28;20050;-44
2021/03/26 14:05:46;;;;;;;10.05;6.78;;;15.70;99.90;;;;;;12347903;28;20414;-42
2021/03/26 14:12:08;;;;;;;9.43;6.10;;;15.80;99.90;;;;;;12373506;28;20764;-43
2021/03/26 14:18:11;;;;;;;11.13;6.00;;;15.80;99.90;;;;;;12373418;28;20053;-43
2021/03/26 14:24:27;;;;;;;13.20;6.00;;;15.30;99.90;;;;;;12381660;28;20069;-44
2021/03/26 14:30:53;;;;;;;9.75;5.57;;;15.10;99.90;;;;;;12375848;28;20114;-44
2021/03/26 14:37:18;;;;;;;11.60;6.38;;;14.90;99.90;;;;;;12378720;28;20668;-42
2021/03/26 14:43:21;;;;;;;10.38;5.60;;;15.00;99.90;;;;;;12371226;28;20042;-44
2021/03/26 14:49:25;;;;;;;7.88;4.97;;;15.00;99.90;;;;;;12362595;28;20069;-42
2021/03/26 14:55:42;;;;;;;11.18;5.90;;;14.80;99.90;;;;;;12361072;28;20165;-44
2021/03/26 15:01:46;;;;;;;8.82;5.50;;;14.80;99.90;;;;;;12372533;28;20065;-43
2021/03/26 15:07:50;;;;;;;7.80;4.82;;;15.00;99.90;;;;;;12361935;28;20133;-42
2021/03/26 15:14:22;;;;;;;8.85;5.10;;;14.80;99.90;;;;;;12363479;28;20077;-44
2021/03/26 15:20:28;;;;;;;8.52;4.88;;;15.20;99.90;;;;;;12363175;28;20140;-44
2021/03/26 15:26:34;;;;;;;10.15;5.05;;;15.60;99.90;;;;;;12371283;28;20375;-42
2021/03/26 15:32:42;;;;;;;9.98;5.68;;;15.20;99.90;;;;;;12361940;28;20069;-44
2021/03/26 15:38:51;;;;;;;9.20;4.68;;;15.40;99.90;;;;;;12360061;28;20494;-42
2021/03/26 15:45:20;;;;;;;6.90;4.30;;;15.10;99.90;;;;;;12372103;28;20038;-42
2021/03/26 15:51:27;;;;;;;8.85;4.43;;;15.00;99.90;;;;;;12364554;28;20042;-43
2021/03/26 15:57:59;;;;;;;7.32;4.25;;;15.30;99.90;;;;;;12364937;28;20141;-43
2021/03/26 16:04:26;;;;;;;7.85;4.45;;;15.50;99.90;;;;;;12373022;28;20111;-44
2021/03/26 16:10:47;;;;;;;6.70;4.03;;;15.10;99.90;;;;;;12356651;28;20118;-42
2021/03/26 16:16:54;;;;;;;6.35;3.90;;;15.20;99.90;;;;;;12365246;28;20088;-41
2021/03/26 16:23:01;;;;;;;7.93;3.72;;;15.10;99.90;;;;;;12371626;28;20042;-44
2021/03/26 16:29:24;;;;;;;4.85;3.25;;;14.90;99.90;;;;;;12369994;28;20475;-42
2021/03/26 16:35:44;;;;;;;7.43;3.53;;;15.10;99.90;;;;;;12364812;28;20092;-42
2021/03/26 16:42:13;;;;;;;5.93;3.50;;;15.20;99.90;;;;;;12365254;28;20074;-43
2021/03/26 16:48:27;;;;;;;9.52;3.63;;;15.20;99.90;;;;;;12367817;28;20053;-43
2021/03/26 16:54:35;;;;;;;11.25;4.13;;;14.90;99.90;;;;;;12368007;28;20054;-43
2021/03/26 17:01:14;;;;;;;7.63;3.67;;;14.60;99.90;;;;;;12364735;28;20054;-43
2021/03/26 17:07:21;;;;;;;8.52;3.85;;;14.40;99.90;;;;;;12375269;28;20391;-42
2021/03/26 17:13:38;;;;;;;8.88;4.13;;;14.20;99.90;;;;;;12365125;28;20128;-44
2021/03/26 17:20:00;;;;;;;7.13;4.03;;;14.00;99.90;;;;;;12379653;28;20418;-43
2021/03/26 17:26:33;;;;;;;6.72;3.50;;;13.80;99.90;;;;;;12375792;28;21215;-44
2021/03/26 17:33:02;;;;;;;5.72;3.65;;;13.70;99.90;;;;;;12379591;28;20453;-43
2021/03/26 17:39:22;;;;;;;8.07;3.08;;;13.50;99.90;;;;;;12380694;28;20058;-41
2021/03/26 17:45:42;;;;;;;7.15;3.38;;;13.40;99.90;;;;;;12382635;28;20142;-44
2021/03/26 17:52:08;;;;;;;6.72;3.38;;;13.20;99.90;;;;;;12365861;28;20165;-41
2021/03/26 17:58:44;;;;;;;7.00;3.20;;;12.90;99.90;;;;;;12380904;28;20058;-43
2021/03/26 18:05:12;;;;;;;6.35;2.78;;;12.60;99.90;;;;;;12377786;28;20505;-42
2021/03/26 18:11:34;;;;;;;6.45;2.90;;;12.60;99.90;;;;;;12380112;28;20177;-42
2021/03/26 18:17:55;;;;;;;7.68;3.00;;;12.50;99.90;;;;;;12375303;28;20050;-43
2021/03/26 18:24:23;;;;;;;7.93;3.28;;;12.60;99.90;;;;;;12369560;28;20402;-42
2021/03/26 18:30:36;;;;;;;7.97;3.22;;;12.50;99.90;;;;;;12375722;28;20049;-41
2021/03/26 18:36:49;;;;;;;6.93;3.00;;;12.40;99.90;;;;;;12374930;28;20050;-42
2021/03/26 18:43:01;;;;;;;8.73;2.78;;;12.50;99.90;;;;;;12363272;28;20076;-43
2021/03/26 18:49:15;;;;;;;5.97;3.40;;;12.50;99.90;;;;;;12355661;28;20477;-42
2021/03/26 18:55:52;;;;;;;7.97;2.88;;;12.50;99.90;;;;;;12371470;28;20056;-42
2021/03/26 19:02:23;;;;;;;5.65;2.47;;;12.50;99.90;;;;;;12372383;28;20486;-44
2021/03/26 19:08:34;;;;;;;7.50;2.65;;;12.30;99.90;;;;;;12361242;28;20046;-44
2021/03/26 19:15:17;;;;;;;5.45;2.95;;;12.20;99.90;;;;;;12358824;28;20417;-42
2021/03/26 19:21:42;;;;;;;6.25;2.97;;;12.30;99.90;;;;;;12362339;28;20062;-42
2021/03/26 19:27:58;;;;;;;5.55;2.75;;;12.20;99.90;;;;;;12371365;28;20054;-42
2021/03/26 19:34:24;;;;;;;6.60;3.75;;;12.20;99.90;;;;;;12357594;28;20054;-41
2021/03/26 19:41:02;;;;;;;5.60;3.30;;;12.20;99.90;;;;;;12357518;28;20054;-43
2021/03/26 19:47:03;;;;;;;7.35;3.50;;;12.20;99.90;;;;;;12369184;28;20058;-42
2021/03/26 19:53:30;;;;;;;9.55;3.90;;;12.10;99.90;;;;;;12368504;28;20417;-41
2021/03/26 19:59:48;;;;;;;11.00;3.35;;;12.00;99.90;;;;;;12367760;28;20050;-41
2021/03/26 20:06:08;;;;;;;5.32;3.47;;;12.00;99.90;;;;;;12361323;28;20915;-41
2021/03/26 20:12:16;;;;;;;6.90;3.60;;;11.80;99.90;;;;;;12352241;28;20140;-41
2021/03/26 20:18:50;;;;;;;12.30;4.20;;;11.70;99.90;;;;;;12360010;28;20107;-41
2021/03/26 20:25:24;;;;;;;9.57;4.00;;;11.70;99.90;;;;;;12362698;28;20070;-41
2021/03/26 20:31:49;;;;;;;6.65;3.60;;;11.70;99.90;;;;;;12375935;28;20046;-41
2021/03/26 20:38:28;;;;;;;8.50;3.50;;;11.70;99.90;;;;;;12371254;28;20136;-42
2021/03/26 20:44:55;;;;;;;7.35;3.50;;;11.60;99.90;;;;;;12370409;28;20526;-43
2021/03/26 20:51:17;;;;;;;8.40;3.78;;;11.60;99.90;;;;;;12369741;28;20054;-43
2021/03/26 20:57:49;;;;;;;6.03;2.85;;;11.70;99.90;;;;;;12368050;28;20049;-44
2021/03/26 21:04:00;;;;;;;6.03;3.10;;;11.60;99.90;;;;;;12368086;28;20046;-42
2021/03/26 21:10:17;;;;;;;6.28;3.53;;;11.60;99.90;;;;;;12370119;28;20529;-43
2021/03/26 21:16:28;;;;;;;5.18;3.28;;;11.40;99.90;;;;;;12359710;28;20050;-44
2021/03/26 21:22:39;;;;;;;7.50;3.75;;;11.20;99.90;;;;;;12359564;28;20050;-42
2021/03/26 21:29:22;;;;;;;5.35;3.10;;;11.00;99.90;;;;;;12365107;28;20112;-43
2021/03/26 21:35:29;;;;;;;9.15;3.65;;;10.90;99.90;;;;;;12366226;28;20082;-43
2021/03/26 21:41:35;;;;;;;9.73;3.50;;;10.90;99.90;;;;;;12358747;28;20046;-42
2021/03/26 21:47:46;;;;;;;6.68;3.80;;;10.90;99.90;;;;;;12364648;28;20046;-42
2021/03/26 21:54:10;;;;;;;6.32;3.65;;;10.80;99.90;;;;;;12366696;28;20050;-43
2021/03/26 22:00:37;;;;;;;8.18;3.90;;;10.70;99.90;;;;;;12377920;28;20184;-42
2021/03/26 22:07:03;;;;;;;9.20;3.65;;;10.60;99.90;;;;;;12375367;28;20150;-43
2021/03/26 22:13:18;;;;;;;;;;;10.50;99.90;;;;;;12356003;28;20057;-42
2021/03/26 22:19:44;;;;;;;7.60;3.00;;;10.40;99.90;;;;;;12367475;28;19964;-42
2021/03/26 22:25:46;;;;;;;4.93;2.83;;;10.40;99.90;;;;;;12376632;28;20100;-42
2021/03/26 22:32:08;;;;;;;6.80;3.50;;;10.50;99.90;;;;;;12368938;28;20056;-44
2021/03/26 22:38:25;;;;;;;5.88;3.22;;;10.40;99.90;;;;;;12381061;28;20069;-43
2021/03/26 22:44:30;;;;;;;7.15;3.58;;;10.30;99.90;;;;;;12370967;28;20133;-43
2021/03/26 22:50:49;;;;;;;6.57;3.33;;;10.40;99.90;;;;;;12371574;28;20692;-42
2021/03/26 22:57:15;;;;;;;8.57;3.85;;;10.30;99.90;;;;;;12374014;28;20050;-42
2021/03/26 23:03:34;;;;;;;6.50;3.22;;;10.20;99.90;;;;;;12366267;28;20037;-42
2021/03/26 23:09:44;;;;;;;8.55;2.90;;;10.10;99.90;;;;;;12374954;28;20069;-43
2021/03/26 23:16:04;;;;;;;6.47;3.00;;;10.00;99.90;;;;;;12366964;28;20751;-42
2021/03/26 23:22:34;;;;;;;7.05;3.60;;;10.10;99.90;;;;;;12371849;28;20180;-43
2021/03/26 23:28:42;;;;;;;6.25;3.58;;;10.10;99.90;;;;;;12377301;28;20053;-43
2021/03/26 23:35:10;;;;;;;5.75;3.30;;;10.10;99.90;;;;;;12372692;28;20466;-42
2021/03/26 23:41:15;;;;;;;6.95;3.17;;;10.00;99.90;;;;;;12362765;28;20056;-42
2021/03/26 23:47:29;;;;;;;9.43;3.60;;;10.10;99.90;;;;;;12360591;28;20721;-42
2021/03/26 23:53:54;;;;;;;6.32;3.40;;;10.00;99.90;;;;;;12367296;28;20054;-42
